Nearby METAR Reports

 

KHOB - Hobbs, New Mexico, USA
Distance from station: S 40mi, 65km
Updated: Thu, 13-Dec-2018 1:50pm MST
Clear
Clear
 Wind from NNW
Wind: NNW 37 mph , 59 km/h, Gust: 52 mph , 83 km/h
Temperature: 48°F , 9°C
Wind Chill: 38°F , 3°C
Dew Point: 10°F , -12°C
Humidity: 21%
Barometer: 30.10 inHg , 1019.3 hPa
Clouds: Clear
Visibility: 8 miles , 13 km
2018/12/13 20:50 KHOB 132050Z 34032G45KT 8SM CLR 09/M12 A3010
KGNC - Seminole, Texas, USA
Distance from station: SE 55mi, 89km
Updated: Thu, 13-Dec-2018 1:55pm MST
Overcast
Overcast
 Wind from N
Wind: N 37 mph , 59 km/h, Gust: 51 mph , 81 km/h
Temperature: 48°F , 9°C
Wind Chill: 38°F , 3°C
Dew Point: 16°F , -9°C
Humidity: 27%
Barometer: 30.10 inHg , 1019.3 hPa
Clouds: Overcast
Visibility: 7 miles , 11 km
Cloud details: Partly cloudy 2300 ft
Overcast 3200 ft
2018/12/13 20:55 KGNC 132055Z AUTO 36032G44KT 7SM SCT023 OVC032 09/M09 A3010 RMK AO2 T00851087
 
KROW - Roswell, New Mexico, USA
Distance from station: W 67mi, 108km
Updated: Thu, 13-Dec-2018 1:51pm MST
Few Clouds
Few Clouds
 Wind from NNW
Wind: NNW 20 mph , 31 km/h, Gust: 33 mph , 54 km/h
Temperature: 52°F , 11°C
Dew Point: 21°F , -6°C
Humidity: 30%
Barometer: 30.16 inHg , 1021.3 hPa
Clouds: Few Clouds
Visibility: 10 miles , 16 km
Cloud details: Few Clouds 8000 ft
2018/12/13 20:51 KROW 132051Z 33017G29KT 10SM FEW080 11/M06 A3016 RMK AO2 PK WND 35030/2041 SLP192 T01061061 55011
KATS - Artesia, New Mexico, USA
Distance from station: WSW 71mi, 114km
Updated: Thu, 13-Dec-2018 1:55pm MST
Clear
Clear
 Wind from N
Wind: N 23 mph , 37 km/h, Gust: 36 mph , 57 km/h
Temperature: 50°F , 10°C
Wind Chill: 43°F , 6°C
Dew Point: 19°F , -7°C
Humidity: 30%
Barometer: 30.18 inHg , 1022 hPa
Clouds: Clear
Visibility: 10 miles , 16 km
2018/12/13 20:55 KATS 132055Z AUTO 36020G31KT 10SM CLR 10/M07 A3018 RMK AO2
 
KCVS - Cannon AFB,Clovis, New Mexico, USA
Distance from station: 0 78mi, 125km
Updated: Thu, 13-Dec-2018 1:56pm MST
Clear
Clear
 Wind from N
Wind: N 31 mph , 50 km/h, Gust: 45 mph , 72 km/h
Temperature: 45°F , 7°C
Wind Chill: 35°F , 2°C
Dew Point: 3°F , -16°C
Humidity: 18%
Barometer: 30.09 inHg , 1019 hPa
Clouds: Clear
Visibility: 10 miles , 16 km
2018/12/13 20:56 KCVS 132056Z 36027G39KT 10SM CLR 07/M16 A3009 RMK AO2A PK WND 34047/04 SLP178 T00741161 58004 $
KE11 - Andrews, Texas, USA
Distance from station: SE 78mi, 126km
Updated: Thu, 13-Dec-2018 1:55pm MST
Overcast
Overcast
 Wind from N
Wind: N 33 mph , 54 km/h, Gust: 47 mph , 76 km/h
Temperature: 48°F , 9°C
Wind Chill: 39°F , 4°C
Dew Point: 19°F , -7°C
Humidity: 32%
Barometer: 30.06 inHg , 1017.9 hPa
Clouds: Overcast
Visibility: 7 miles , 11 km
Cloud details: Partly cloudy 2700 ft
Overcast 3400 ft
2018/12/13 20:55 KE11 132055Z AUTO 35029G41KT 7SM SCT027 OVC034 09/M07 A3006 RMK AO2 T00851072
 
KCNM - Carlsbad, New Mexico, USA
Distance from station: SW 82mi, 132km
Updated: Thu, 13-Dec-2018 1:53pm MST
Clear
Clear
 Wind from NNW
Wind: NNW 29 mph , 46 km/h, Gust: 37 mph , 59 km/h
Temperature: 50°F , 10°C
Wind Chill: 42°F , 6°C
Dew Point: 19°F , -7°C
Humidity: 30%
Barometer: 30.16 inHg , 1021.3 hPa
Clouds: Clear
Visibility: 10 miles , 16 km
2018/12/13 20:53 KCNM 132053Z AUTO 33025G32KT 10SM CLR 10/M07 A3016 RMK AO2 PK WND 34034/2035 SLP194 T01001067 56012
KCVN - Clovis Muni, New Mexico, USA
Distance from station: N 83mi, 133km
Updated: Thu, 13-Dec-2018 1:56pm MST
Clear
Clear
 Wind from N
Wind: N 41 mph , 67 km/h, Gust: 49 mph , 80 km/h
Temperature: 45°F , 7°C
Wind Chill: 34°F , 1°C
Dew Point: 3°F , -16°C
Humidity: 18%
Barometer: 30.11 inHg , 1019.6 hPa
Clouds: Clear
Visibility: 8 miles , 13 km
2018/12/13 20:56 KCVN 132056Z AUTO 36036G43KT 8SM CLR 07/M16 A3011 RMK AO2 PK WND 36046/2008 SLP197 P0003 60004 T00671156 55003
 
KLBB - Lubbock, Texas, USA
Distance from station: ENE 92mi, 149km
Updated: Thu, 13-Dec-2018 1:53pm MST
Mostly cloudy
Mostly cloudy
 Wind from N
Wind: N 39 mph , 63 km/h, Gust: 58 mph , 93 km/h
Temperature: 45°F , 7°C
Wind Chill: 34°F , 1°C
Dew Point: 21°F , -6°C
Humidity: 39%
Barometer: 29.96 inHg , 1014.6 hPa
Clouds: Mostly cloudy
Visibility: 10 miles , 16 km
Cloud details: Mostly cloudy 7500 ft
Mostly cloudy 9500 ft
Mostly cloudy 25000 ft
2018/12/13 20:53 KLBB 132053Z 35034G50KT 10SM BKN075 BKN095 BKN250 07/M06 A2996 RMK AO2 PK WND 35050/2043 SLP139 60000 T00671061 55001
KINK - Wink, Texas, USA
Distance from station: S 101mi, 163km
Updated: Thu, 13-Dec-2018 1:53pm MST
Clear
Clear
 Wind from N
Wind: N 26 mph , 43 km/h, Gust: 39 mph , 63 km/h
Temperature: 52°F , 11°C
Dew Point: 19°F , -7°C
Humidity: 28%
Barometer: 30.11 inHg , 1019.6 hPa
Clouds: Clear
Visibility: 10 miles , 16 km
2018/12/13 20:53 KINK 132053Z AUTO 35023G34KT 10SM CLR 11/M07 A3011 RMK AO2 PK WND 34040/1958 SLP177 T01111072 56007 TSNO
 
KMAF - Midland, Texas, USA
Distance from station: SE 111mi, 179km
Updated: Thu, 13-Dec-2018 1:53pm MST
Mostly cloudy
Mostly cloudy
 Wind from NNW
Wind: NNW 25 mph , 41 km/h, Gust: 33 mph , 54 km/h
Temperature: 48°F , 9°C
Wind Chill: 40°F , 4°C
Dew Point: 27°F , -3°C
Humidity: 43%
Barometer: 30.03 inHg , 1016.9 hPa
Clouds: Mostly cloudy
Visibility: 10 miles , 16 km
Cloud details: Few Clouds 3700 ft
Mostly cloudy 8000 ft
2018/12/13 20:53 KMAF 132053Z 34022G29KT 10SM FEW037 BKN080 09/M03 A3003 RMK AO2 PK WND 35041/2025 SLP152 60000 T00891033 53000
KSRR - Sierra B/Ruidoso, New Mexico, USA
Distance from station: W 127mi, 204km
Updated: Thu, 13-Dec-2018 1:55pm MST
Few Clouds
Few Clouds
 Wind from WNW
Wind: WNW 13 mph , 20 km/h, Gust: 21 mph , 33 km/h
Temperature: 36°F , 2°C
Wind Chill: 27°F , -3°C
Dew Point: 10°F , -12°C
Humidity: 35%
Barometer: 30.21 inHg , 1023 hPa
Clouds: Few Clouds
Visibility: 10 miles , 16 km
Cloud details: Few Clouds 5000 ft
2018/12/13 20:55 KSRR 132055Z AUTO 30011G18KT 10SM FEW050 02/M12 A3021 RMK AO2 LTG DSNT E
 
KGDP - Guadalupe Pass, Texas, USA
Distance from station: SW 130mi, 209km
Updated: Thu, 22-Nov-2018 11:51am MST
NOT Current
Clear
Clear
 Wind from WSW
Wind: WSW 20 mph , 31 km/h
Temperature: 57°F , 14°C
Dew Point: 37°F , 3°C
Humidity: 48%
Barometer: 30.17 inHg , 1021.7 hPa
Clouds: Clear
Visibility: 10 miles , 16 km
2018/11/22 18:51 KGDP 221851Z AUTO 24017KT 10SM CLR 14/03 A3017 RMK AO2 SLP180 T01440033